createdAt,value
2018-12-29T00:00:19.957Z,6.14
2018-12-29T00:01:19.715Z,6.05
2018-12-29T00:02:19.722Z,6.07
2018-12-29T00:03:19.746Z,6.11
2018-12-29T00:04:19.769Z,6.05
2018-12-29T00:05:19.533Z,6.09
2018-12-29T00:06:19.794Z,6.16
2018-12-29T00:07:19.549Z,6.04
2018-12-29T00:08:19.849Z,6.08
2018-12-29T00:09:19.591Z,6.05
2018-12-29T00:10:19.603Z,6.05
2018-12-29T00:11:19.620Z,6.04
2018-12-29T00:12:20.046Z,6.07
2018-12-29T00:13:19.655Z,6.17
2018-12-29T00:14:19.930Z,6.04
2018-12-29T00:15:19.954Z,6.07
2018-12-29T00:16:19.959Z,6.07
2018-12-29T00:17:20.250Z,6.09
2018-12-29T00:18:20.271Z,6.16
2018-12-29T00:19:20.023Z,6.16
2018-12-29T00:20:20.041Z,6.07
2018-12-29T00:21:19.778Z,6.12
2018-12-29T00:22:20.067Z,6.19
2018-12-29T00:23:20.082Z,6.04
2018-12-29T00:24:20.092Z,6.09
2018-12-29T00:25:20.368Z,6.14
2018-12-29T00:26:20.400Z,6.17
2018-12-29T00:27:20.136Z,6.08
2018-12-29T00:28:20.172Z,6.17
2018-12-29T00:29:19.918Z,6.12
2018-12-29T00:30:20.197Z,6.07
2018-12-29T00:31:20.213Z,6.17
2018-12-29T00:32:20.227Z,6.17
2018-12-29T00:33:20.495Z,6.08
2018-12-29T00:34:20.253Z,6.07
2018-12-29T00:35:20.279Z,6.11
2018-12-29T00:36:20.022Z,6.07
2018-12-29T00:37:20.562Z,6.07
2018-12-29T00:38:20.595Z,6.11
2018-12-29T00:39:20.598Z,6.11
2018-12-29T00:40:20.339Z,6.08
2018-12-29T00:41:20.374Z,6.07
2018-12-29T00:42:20.663Z,6.05
2018-12-29T00:43:20.411Z,6.12
2018-12-29T00:44:20.672Z,6.09
2018-12-29T00:45:20.425Z,6.11
2018-12-29T00:46:20.205Z,6.09
2018-12-29T00:47:20.556Z,6.07
2018-12-29T00:48:20.756Z,6.11
2018-12-29T00:49:20.246Z,6.08
2018-12-29T00:50:20.506Z,6.11
2018-12-29T00:51:20.541Z,6.09
2018-12-29T00:52:20.560Z,6.07
2018-12-29T00:53:20.297Z,6.09
2018-12-29T00:54:20.582Z,6.08
2018-12-29T00:55:20.606Z,6.11
2018-12-29T00:56:20.886Z,6.07
2018-12-29T00:57:20.374Z,6.14
2018-12-29T00:58:20.425Z,6.05
2018-12-29T00:59:20.397Z,6.11
2018-12-29T01:00:20.690Z,6.12
2018-12-29T01:01:20.719Z,6.11
2018-12-29T01:02:20.482Z,6.09
2018-12-29T01:03:20.731Z,6.09
2018-12-29T01:04:20.746Z,6.11
2018-12-29T01:05:20.749Z,6.11
2018-12-29T01:06:20.787Z,6.07
2018-12-29T01:07:20.943Z,6.09
2018-12-29T01:08:20.553Z,6.12
2018-12-29T01:09:20.577Z,6.19
2018-12-29T01:10:21.109Z,6.14
2018-12-29T01:11:20.877Z,6.16
2018-12-29T01:12:20.885Z,6.28
2018-12-29T01:13:20.904Z,6.17
2018-12-29T01:14:20.680Z,6.17
2018-12-29T01:15:20.935Z,6.16
2018-12-29T01:16:20.681Z,6.26
2018-12-29T01:17:20.949Z,6.2
2018-12-29T01:18:20.975Z,6.27
2018-12-29T01:19:20.993Z,6.19
2018-12-29T01:20:21.276Z,6.3
2018-12-29T01:21:21.010Z,6.24
2018-12-29T01:22:21.031Z,6.3
2018-12-29T01:23:21.051Z,6.26
2018-12-29T01:24:21.078Z,6.2
2018-12-29T01:25:21.365Z,6.22
2018-12-29T01:26:20.832Z,6.36
2018-12-29T01:27:21.199Z,6.28
2018-12-29T01:28:20.880Z,6.24
2018-12-29T01:29:21.145Z,6.3
2018-12-29T01:30:21.157Z,6.22
2018-12-29T01:31:20.927Z,6.24
2018-12-29T01:32:21.460Z,6.22
2018-12-29T01:33:21.239Z,6.3
2018-12-29T01:34:21.225Z,6.28
2018-12-29T01:35:20.998Z,6.22
2018-12-29T01:36:21.005Z,6.28
2018-12-29T01:37:21.037Z,6.27
2018-12-29T01:38:21.314Z,6.26
2018-12-29T01:39:21.327Z,6.27
2018-12-29T01:40:21.077Z,6.22
2018-12-29T01:41:21.082Z,6.19
2018-12-29T01:42:21.700Z,6.24
2018-12-29T01:43:21.127Z,6.17
2018-12-29T01:44:21.137Z,6.28
2018-12-29T01:45:22.608Z,6.19
2018-12-29T01:46:21.427Z,6.28
2018-12-29T01:47:21.191Z,6.26
2018-12-29T01:48:21.470Z,6.31
2018-12-29T01:49:21.763Z,6.26
2018-12-29T01:50:21.253Z,6.26
2018-12-29T01:51:21.772Z,6.2
2018-12-29T01:52:21.535Z,6.2
2018-12-29T01:53:21.545Z,6.26
2018-12-29T01:54:21.574Z,6.26
2018-12-29T01:55:21.602Z,6.26
2018-12-29T01:56:21.594Z,6.24
2018-12-29T01:57:21.858Z,6.27
2018-12-29T01:58:21.632Z,6.28
2018-12-29T01:59:21.646Z,6.24
2018-12-29T02:00:21.408Z,6.24
2018-12-29T02:01:21.692Z,6.33
2018-12-29T02:02:21.705Z,6.33
2018-12-29T02:03:21.721Z,6.27
2018-12-29T02:04:21.742Z,6.3
2018-12-29T02:05:22.009Z,6.3
2018-12-29T02:06:21.749Z,6.36
2018-12-29T02:07:21.778Z,6.28
2018-12-29T02:08:22.104Z,6.3
2018-12-29T02:09:21.556Z,6.33
2018-12-29T02:10:21.571Z,6.35
2018-12-29T02:11:21.853Z,6.3
2018-12-29T02:12:21.846Z,6.27
2018-12-29T02:13:21.615Z,6.38
2018-12-29T02:14:21.907Z,6.36
2018-12-29T02:15:29.483Z,6.36
2018-12-29T02:16:21.656Z,6.39
2018-12-29T02:17:21.957Z,6.28
2018-12-29T02:18:21.969Z,6.33
2018-12-29T02:19:21.719Z,6.33
2018-12-29T02:20:21.986Z,6.31
2018-12-29T02:21:21.756Z,6.38
2018-12-29T02:22:22.300Z,6.35
2018-12-29T02:23:22.318Z,6.36
2018-12-29T02:24:22.049Z,6.35
2018-12-29T02:25:22.084Z,6.36
2018-12-29T02:26:22.099Z,6.36
2018-12-29T02:27:22.094Z,6.44
2018-12-29T02:28:22.161Z,6.39
2018-12-29T02:29:22.143Z,6.35
2018-12-29T02:30:22.163Z,6.39
2018-12-29T02:31:22.435Z,6.31
2018-12-29T02:32:22.189Z,6.35
2018-12-29T02:33:21.951Z,6.36
2018-12-29T02:34:22.487Z,6.41
2018-12-29T02:35:22.273Z,6.38
2018-12-29T02:36:22.278Z,6.39
2018-12-29T02:37:22.261Z,6.41
2018-12-29T02:38:22.301Z,6.33
2018-12-29T02:39:22.310Z,6.39
2018-12-29T02:40:22.063Z,6.35
2018-12-29T02:41:22.344Z,6.41
2018-12-29T02:42:22.088Z,6.39
2018-12-29T02:43:22.372Z,6.41
2018-12-29T02:44:22.384Z,6.33
2018-12-29T02:45:22.474Z,6.35
2018-12-29T02:46:22.432Z,6.41
2018-12-29T02:47:22.714Z,6.41
2018-12-29T02:48:22.190Z,6.38
2018-12-29T02:49:22.468Z,6.39
2018-12-29T02:50:22.235Z,6.36
2018-12-29T02:51:22.492Z,6.36
2018-12-29T02:52:22.328Z,6.44
2018-12-29T02:53:22.798Z,6.39
2018-12-29T02:54:22.556Z,6.41
2018-12-29T02:55:22.578Z,6.42
2018-12-29T02:56:22.844Z,6.36
2018-12-29T02:57:22.602Z,6.45
2018-12-29T02:58:22.610Z,6.48
2018-12-29T02:59:22.368Z,6.42
2018-12-29T03:00:22.651Z,6.44
2018-12-29T03:01:22.920Z,6.38
2018-12-29T03:02:22.431Z,6.36
2018-12-29T03:03:22.699Z,6.38
2018-12-29T03:04:22.716Z,6.44
2018-12-29T03:05:23.064Z,6.44
2018-12-29T03:06:22.762Z,6.39
2018-12-29T03:07:22.527Z,6.42
2018-12-29T03:08:23.047Z,6.44
2018-12-29T03:09:22.582Z,6.35
2018-12-29T03:10:22.828Z,6.45
2018-12-29T03:11:22.882Z,6.48
2018-12-29T03:12:22.839Z,6.42
2018-12-29T03:13:22.609Z,6.39
2018-12-29T03:14:22.896Z,6.42
2018-12-29T03:15:22.901Z,6.44
2018-12-29T03:16:23.195Z,6.44
2018-12-29T03:17:22.936Z,6.41
2018-12-29T03:18:22.960Z,6.42
2018-12-29T03:19:22.976Z,6.39
2018-12-29T03:20:22.717Z,6.42
2018-12-29T03:21:23.003Z,6.52
2018-12-29T03:22:23.016Z,6.52
2018-12-29T03:23:23.030Z,6.46
2018-12-29T03:24:23.306Z,6.44
2018-12-29T03:25:22.813Z,6.46
2018-12-29T03:26:23.096Z,6.42
2018-12-29T03:27:23.370Z,6.46
2018-12-29T03:28:22.848Z,6.56
2018-12-29T03:29:22.880Z,6.41
2018-12-29T03:30:23.173Z,6.49
2018-12-29T03:31:23.316Z,6.54
2018-12-29T03:32:23.456Z,6.48
2018-12-29T03:33:22.983Z,6.45
2018-12-29T03:34:23.227Z,6.49
2018-12-29T03:35:23.506Z,6.51
2018-12-29T03:36:23.519Z,6.45
2018-12-29T03:37:23.266Z,6.52
2018-12-29T03:38:23.014Z,6.45
2018-12-29T03:39:23.035Z,6.49
2018-12-29T03:40:23.386Z,6.46
2018-12-29T03:41:23.586Z,6.51
2018-12-29T03:42:23.327Z,6.48
2018-12-29T03:43:23.356Z,6.51
2018-12-29T03:44:23.127Z,6.44
2018-12-29T03:45:23.408Z,6.48
2018-12-29T03:46:23.400Z,6.51
2018-12-29T03:47:23.430Z,6.45
2018-12-29T03:48:23.450Z,6.45
2018-12-29T03:49:23.737Z,6.45
2018-12-29T03:50:23.486Z,6.48
2018-12-29T03:51:23.506Z,6.38
2018-12-29T03:52:23.242Z,6.46
2018-12-29T03:53:23.515Z,6.49
2018-12-29T03:54:23.801Z,6.45
2018-12-29T03:55:23.567Z,6.45
2018-12-29T03:56:23.571Z,6.46
2018-12-29T03:57:23.331Z,6.45
2018-12-29T03:58:23.597Z,6.45
2018-12-29T03:59:23.642Z,6.46
2018-12-29T04:00:23.387Z,6.48
2018-12-29T04:01:23.387Z,6.56
2018-12-29T04:02:23.670Z,6.42
2018-12-29T04:03:23.710Z,6.46
2018-12-29T04:04:23.968Z,6.48
2018-12-29T04:05:24.006Z,6.44
2018-12-29T04:06:23.747Z,6.54
2018-12-29T04:07:23.753Z,6.39
2018-12-29T04:08:23.533Z,6.44
2018-12-29T04:09:23.805Z,6.49
2018-12-29T04:10:24.078Z,6.46
2018-12-29T04:11:24.089Z,6.44
2018-12-29T04:12:23.841Z,6.51
2018-12-29T04:13:23.612Z,6.41
2018-12-29T04:14:23.875Z,6.51
2018-12-29T04:15:23.614Z,6.49
2018-12-29T04:16:23.909Z,6.49
2018-12-29T04:17:23.674Z,6.44
2018-12-29T04:18:23.947Z,6.45
2018-12-29T04:19:23.942Z,6.48
2018-12-29T04:20:24.225Z,6.46
2018-12-29T04:21:23.720Z,6.44
2018-12-29T04:22:23.997Z,6.44
2018-12-29T04:23:23.747Z,6.46
2018-12-29T04:24:24.041Z,6.38
2018-12-29T04:25:24.067Z,6.45
2018-12-29T04:26:24.062Z,6.46
2018-12-29T04:27:24.085Z,6.56
2018-12-29T04:28:23.851Z,6.52
2018-12-29T04:29:24.391Z,6.39
2018-12-29T04:30:23.873Z,6.56
2018-12-29T04:31:24.415Z,6.39
2018-12-29T04:32:24.421Z,6.46
2018-12-29T04:33:24.170Z,6.45
2018-12-29T04:34:23.946Z,6.56
2018-12-29T04:35:24.231Z,6.52
2018-12-29T04:36:23.964Z,6.51
2018-12-29T04:37:24.332Z,6.51
2018-12-29T04:38:24.253Z,6.51
2018-12-29T04:39:24.541Z,6.48
2018-12-29T04:40:24.049Z,6.48
2018-12-29T04:41:24.308Z,6.49
2018-12-29T04:42:24.348Z,6.54
2018-12-29T04:43:24.348Z,6.56
2018-12-29T04:44:24.365Z,6.51
2018-12-29T04:45:24.126Z,6.57
2018-12-29T04:46:24.141Z,6.46
2018-12-29T04:47:24.164Z,6.56
2018-12-29T04:48:24.436Z,6.54
2018-12-29T04:49:24.455Z,6.57
2018-12-29T04:50:24.201Z,6.52
2018-12-29T04:51:24.235Z,6.52
2018-12-29T04:52:24.499Z,6.48
2018-12-29T04:53:24.521Z,6.44
2018-12-29T04:54:24.275Z,6.46
2018-12-29T04:55:24.559Z,6.48
2018-12-29T04:56:24.296Z,6.57
2018-12-29T04:57:24.572Z,6.49
2018-12-29T04:58:24.582Z,6.52
2018-12-29T04:59:24.354Z,6.56
2018-12-29T05:00:24.362Z,6.45
2018-12-29T05:01:24.645Z,6.56
2018-12-29T05:02:24.661Z,6.63
2018-12-29T05:03:24.676Z,6.56
2018-12-29T05:04:24.689Z,6.44
2018-12-29T05:05:24.469Z,6.51
2018-12-29T05:06:25.007Z,6.56
2018-12-29T05:07:24.768Z,6.44
2018-12-29T05:08:24.772Z,6.49
2018-12-29T05:09:25.035Z,6.48
2018-12-29T05:10:24.789Z,6.48
2018-12-29T05:11:24.558Z,6.62
2018-12-29T05:12:24.571Z,6.6
2018-12-29T05:13:24.855Z,6.44
2018-12-29T05:14:24.861Z,6.57
2018-12-29T05:15:25.136Z,6.6
2018-12-29T05:16:24.624Z,6.6
2018-12-29T05:17:24.660Z,6.64
2018-12-29T05:18:24.664Z,6.51
2018-12-29T05:19:24.948Z,6.59
2018-12-29T05:20:25.229Z,6.49
2018-12-29T05:21:24.721Z,6.62
2018-12-29T05:22:25.253Z,6.57
2018-12-29T05:23:25.012Z,6.51
2018-12-29T05:24:24.768Z,6.64
2018-12-29T05:25:25.037Z,6.51
2018-12-29T05:26:25.061Z,6.56
2018-12-29T05:27:24.811Z,6.52
2018-12-29T05:28:24.839Z,6.59
2018-12-29T05:29:25.112Z,6.57
2018-12-29T05:30:25.130Z,6.62
2018-12-29T05:31:25.160Z,6.52
2018-12-29T05:32:24.889Z,6.57
2018-12-29T05:33:25.180Z,6.62
2018-12-29T05:34:25.248Z,6.63
2018-12-29T05:35:24.958Z,6.56
2018-12-29T05:36:25.233Z,6.62
2018-12-29T05:37:25.301Z,6.56
2018-12-29T05:38:25.510Z,6.59
2018-12-29T05:39:25.042Z,6.64
2018-12-29T05:40:25.295Z,6.62
2018-12-29T05:41:25.053Z,6.66
2018-12-29T05:42:25.058Z,6.59
2018-12-29T05:43:25.590Z,6.66
2018-12-29T05:44:25.344Z,6.67
2018-12-29T05:45:25.363Z,6.6
2018-12-29T05:46:25.166Z,6.56
2018-12-29T05:47:25.146Z,6.6
2018-12-29T05:48:25.149Z,6.59
2018-12-29T05:49:25.189Z,6.64
2018-12-29T05:50:25.718Z,6.63
2018-12-29T05:51:25.467Z,6.62
2018-12-29T05:52:25.477Z,6.59
2018-12-29T05:53:25.494Z,6.6
2018-12-29T05:54:25.523Z,6.6
2018-12-29T05:55:25.549Z,6.59
2018-12-29T05:56:25.807Z,6.6
2018-12-29T05:57:25.561Z,6.67
2018-12-29T05:58:25.323Z,6.64
2018-12-29T05:59:25.596Z,6.63
2018-12-29T06:00:25.621Z,6.66
2018-12-29T06:01:25.885Z,6.63
2018-12-29T06:02:25.398Z,6.63
2018-12-29T06:03:25.406Z,6.63
2018-12-29T06:04:27.201Z,6.64
2018-12-29T06:05:25.439Z,6.67
2018-12-29T06:06:25.447Z,6.67
2018-12-29T06:07:26.095Z,6.67
2018-12-29T06:08:25.768Z,6.64
2018-12-29T06:09:25.773Z,6.72
2018-12-29T06:10:25.780Z,6.74
2018-12-29T06:11:25.546Z,6.7
2018-12-29T06:12:26.129Z,6.67
2018-12-29T06:13:25.571Z,6.63
2018-12-29T06:14:25.905Z,6.72
2018-12-29T06:15:25.602Z,6.7
2018-12-29T06:16:32.455Z,6.64
2018-12-29T06:17:25.634Z,6.64
2018-12-29T06:18:26.173Z,6.66
2018-12-29T06:19:25.952Z,6.74
2018-12-29T06:20:25.686Z,6.64
2018-12-29T06:21:25.971Z,6.67
2018-12-29T06:22:25.982Z,6.64
2018-12-29T06:23:25.748Z,6.74
2018-12-29T06:24:26.031Z,6.66
2018-12-29T06:25:26.033Z,6.72
2018-12-29T06:26:26.033Z,6.7
2018-12-29T06:27:26.326Z,6.74
2018-12-29T06:28:26.071Z,6.7
2018-12-29T06:29:26.149Z,6.74
2018-12-29T06:30:25.867Z,6.69
2018-12-29T06:31:26.114Z,6.74
2018-12-29T06:32:25.874Z,6.7
2018-12-29T06:33:26.162Z,6.67
2018-12-29T06:34:26.435Z,6.69
2018-12-29T06:35:25.976Z,6.66
2018-12-29T06:36:26.230Z,6.69
2018-12-29T06:37:26.228Z,6.69
2018-12-29T06:38:26.504Z,6.63
2018-12-29T06:39:26.261Z,6.69
2018-12-29T06:40:27.059Z,6.74
2018-12-29T06:41:26.296Z,6.75
2018-12-29T06:42:26.579Z,6.74
2018-12-29T06:43:26.340Z,6.64
2018-12-29T06:44:26.357Z,6.69
2018-12-29T06:45:26.621Z,6.72
2018-12-29T06:46:26.624Z,6.69
2018-12-29T06:47:26.121Z,6.62
2018-12-29T06:48:26.408Z,6.69
2018-12-29T06:49:26.149Z,6.69
2018-12-29T06:50:26.441Z,6.72
2018-12-29T06:51:26.204Z,6.69
2018-12-29T06:52:26.236Z,6.66
2018-12-29T06:53:26.283Z,6.63
2018-12-29T06:54:26.251Z,6.74
2018-12-29T06:55:26.552Z,6.66
2018-12-29T06:56:26.288Z,6.75
2018-12-29T06:57:26.548Z,6.64
2018-12-29T06:58:26.310Z,6.64
2018-12-29T06:59:26.583Z,6.66
2018-12-29T07:00:26.609Z,6.66
2018-12-29T07:01:26.355Z,6.64
2018-12-29T07:02:26.378Z,6.64
2018-12-29T07:03:26.907Z,6.66
2018-12-29T07:04:26.408Z,6.66
2018-12-29T07:05:26.424Z,6.7
2018-12-29T07:06:26.971Z,6.7
2018-12-29T07:07:26.454Z,6.66
2018-12-29T07:08:26.484Z,6.72
2018-12-29T07:09:27.026Z,6.69
2018-12-29T07:10:26.776Z,6.7
2018-12-29T07:11:26.784Z,6.66
2018-12-29T07:12:26.802Z,6.77
2018-12-29T07:13:27.083Z,6.77
2018-12-29T07:14:26.846Z,6.74
2018-12-29T07:15:26.595Z,6.69
2018-12-29T07:16:26.872Z,6.67
2018-12-29T07:17:26.634Z,6.69
2018-12-29T07:18:26.657Z,6.81
2018-12-29T07:19:26.686Z,6.75
2018-12-29T07:20:27.185Z,6.75
2018-12-29T07:21:26.695Z,6.7
2018-12-29T07:22:26.975Z,6.82
2018-12-29T07:23:26.991Z,6.7
2018-12-29T07:24:26.748Z,6.78
2018-12-29T07:25:26.754Z,6.81
2018-12-29T07:26:27.040Z,6.78
2018-12-29T07:27:27.324Z,6.69
2018-12-29T07:28:27.065Z,6.78
2018-12-29T07:29:27.083Z,6.81
2018-12-29T07:30:27.109Z,6.82
2018-12-29T07:31:27.132Z,6.82
2018-12-29T07:32:27.134Z,6.79
2018-12-29T07:33:26.895Z,6.77
2018-12-29T07:34:26.909Z,6.84
2018-12-29T07:35:27.455Z,6.82
2018-12-29T07:36:27.195Z,6.79
2018-12-29T07:37:26.963Z,6.78
2018-12-29T07:38:27.048Z,6.81
2018-12-29T07:39:27.265Z,6.81
2018-12-29T07:40:27.280Z,6.87
2018-12-29T07:41:27.022Z,6.79
2018-12-29T07:42:27.298Z,6.79
2018-12-29T07:43:27.317Z,6.81
2018-12-29T07:44:27.349Z,6.79
2018-12-29T07:45:27.093Z,6.84
2018-12-29T07:46:27.627Z,6.84
2018-12-29T07:47:27.663Z,6.78
2018-12-29T07:48:27.408Z,6.84
2018-12-29T07:49:27.155Z,6.78
2018-12-29T07:50:27.361Z,6.81
2018-12-29T07:51:27.450Z,6.93
2018-12-29T07:52:27.453Z,6.88
2018-12-29T07:53:27.233Z,6.79
2018-12-29T07:54:27.522Z,6.88
2018-12-29T07:55:27.516Z,6.84
2018-12-29T07:56:27.531Z,6.88
2018-12-29T07:57:27.292Z,6.82
2018-12-29T07:58:27.562Z,6.84
2018-12-29T07:59:27.324Z,6.85
2018-12-29T08:00:27.592Z,6.89
2018-12-29T08:01:27.367Z,6.92
2018-12-29T08:02:27.647Z,6.88
2018-12-29T08:03:27.636Z,6.92
2018-12-29T08:04:27.414Z,6.93
2018-12-29T08:05:27.678Z,6.92
2018-12-29T08:06:27.703Z,6.96
2018-12-29T08:07:27.710Z,6.93
2018-12-29T08:08:27.730Z,6.88
2018-12-29T08:09:28.008Z,6.97
2018-12-29T08:10:27.505Z,6.92
2018-12-29T08:11:27.776Z,6.97
2018-12-29T08:12:28.045Z,6.88
2018-12-29T08:13:27.564Z,6.88
2018-12-29T08:14:27.823Z,6.88
2018-12-29T08:15:27.585Z,6.95
2018-12-29T08:16:27.861Z,6.96
2018-12-29T08:17:27.893Z,6.96
2018-12-29T08:18:27.637Z,6.95
2018-12-29T08:19:27.918Z,6.96
2018-12-29T08:20:27.931Z,6.87
2018-12-29T08:21:27.957Z,6.85
2018-12-29T08:22:29.044Z,6.95
2018-12-29T08:23:27.983Z,6.89
2018-12-29T08:24:28.003Z,6.96
2018-12-29T08:25:27.759Z,6.97
2018-12-29T08:26:27.759Z,6.95
2018-12-29T08:27:28.043Z,6.93
2018-12-29T08:28:27.801Z,6.96
2018-12-29T08:29:28.348Z,6.92
2018-12-29T08:30:28.092Z,6.96
2018-12-29T08:31:27.846Z,6.96
2018-12-29T08:32:28.121Z,6.96
2018-12-29T08:33:28.156Z,7
2018-12-29T08:34:28.166Z,6.96
2018-12-29T08:35:27.931Z,7.02
2018-12-29T08:36:28.213Z,7.02
2018-12-29T08:37:27.954Z,7
2018-12-29T08:38:28.235Z,7.02
2018-12-29T08:39:28.493Z,6.93
2018-12-29T08:40:27.998Z,6.93
2018-12-29T08:41:28.284Z,6.95
2018-12-29T08:42:28.307Z,7.06
2018-12-29T08:43:28.322Z,6.95
2018-12-29T08:44:28.069Z,7.05
2018-12-29T08:45:28.351Z,7.02
2018-12-29T08:46:28.622Z,7.07
2018-12-29T08:47:28.138Z,7
2018-12-29T08:48:28.669Z,7.06
2018-12-29T08:49:28.152Z,7.05
2018-12-29T08:50:28.433Z,7.07
2018-12-29T08:51:28.698Z,7.07
2018-12-29T08:52:28.205Z,7.03
2018-12-29T08:53:28.225Z,7.07
2018-12-29T08:54:28.244Z,7.07
2018-12-29T08:55:29.920Z,7.05
2018-12-29T08:56:28.555Z,7.11
2018-12-29T08:57:28.612Z,7.07
2018-12-29T08:58:28.581Z,7.06
2018-12-29T08:59:28.313Z,7.06
2018-12-29T09:00:28.341Z,7.06
2018-12-29T09:01:28.353Z,7.07
2018-12-29T09:02:28.885Z,7.1
2018-12-29T09:03:28.400Z,7.03
2018-12-29T09:04:28.668Z,7.1
2018-12-29T09:05:28.440Z,7.02
2018-12-29T09:06:28.961Z,7.11
2018-12-29T09:07:28.735Z,7.14
2018-12-29T09:08:28.725Z,7.07
2018-12-29T09:09:28.755Z,7.03
2018-12-29T09:10:28.768Z,7.05
2018-12-29T09:11:28.816Z,7.07
2018-12-29T09:12:28.541Z,7.05
2018-12-29T09:13:28.833Z,7.06
2018-12-29T09:14:28.583Z,7.1
2018-12-29T09:15:28.923Z,7.11
2018-12-29T09:16:28.608Z,7.06
2018-12-29T09:17:28.888Z,7.17
2018-12-29T09:18:28.649Z,7.11
2018-12-29T09:19:31.714Z,7.15
2018-12-29T09:20:28.684Z,7.21
2018-12-29T09:21:28.685Z,7.17
2018-12-29T09:22:29.029Z,7.23
2018-12-29T09:23:29.233Z,7.21
2018-12-29T09:24:29.018Z,7.23
2018-12-29T09:25:28.764Z,7.17
2018-12-29T09:26:29.041Z,7.18
2018-12-29T09:27:29.063Z,7.24
2018-12-29T09:28:28.811Z,7.14
2018-12-29T09:29:29.360Z,7.24
2018-12-29T09:30:28.851Z,7.18
2018-12-29T09:31:29.175Z,7.11
2018-12-29T09:32:29.141Z,7.31
2018-12-29T09:33:28.898Z,7.28
2018-12-29T09:34:29.170Z,7.28
2018-12-29T09:35:29.181Z,7.28
2018-12-29T09:36:28.935Z,7.32
2018-12-29T09:37:29.236Z,7.31
2018-12-29T09:38:29.240Z,7.33
2018-12-29T09:39:29.004Z,7.31
2018-12-29T09:40:29.004Z,7.29
2018-12-29T09:41:29.291Z,7.33
2018-12-29T09:42:29.300Z,7.29
2018-12-29T09:43:29.051Z,7.31
2018-12-29T09:44:29.617Z,7.38
2018-12-29T09:45:29.402Z,7.31
2018-12-29T09:46:29.375Z,7.36
2018-12-29T09:47:29.133Z,7.32
2018-12-29T09:48:29.143Z,7.4
2018-12-29T09:49:29.412Z,7.42
2018-12-29T09:50:29.455Z,7.39
2018-12-29T09:51:29.193Z,7.43
2018-12-29T09:52:29.460Z,7.33
2018-12-29T09:53:29.227Z,7.38
2018-12-29T09:54:29.523Z,7.4
2018-12-29T09:55:29.266Z,7.4
2018-12-29T09:56:29.539Z,7.4
2018-12-29T09:57:29.573Z,7.38
2018-12-29T09:58:29.836Z,7.36
2018-12-29T09:59:29.867Z,7.45
2018-12-29T10:00:29.879Z,7.45
2018-12-29T10:01:29.621Z,7.42
2018-12-29T10:02:29.629Z,7.47
2018-12-29T10:03:29.394Z,7.4
2018-12-29T10:04:29.678Z,7.5
2018-12-29T10:05:29.769Z,7.43
2018-12-29T10:06:29.707Z,7.39
2018-12-29T10:07:29.723Z,7.47
2018-12-29T10:08:29.750Z,7.43
2018-12-29T10:09:29.770Z,7.43
2018-12-29T10:10:30.033Z,7.48
2018-12-29T10:11:29.862Z,7.4
2018-12-29T10:12:29.557Z,7.56
2018-12-29T10:13:29.840Z,7.54
2018-12-29T10:14:29.581Z,7.5
2018-12-29T10:15:29.862Z,7.43
2018-12-29T10:16:30.155Z,7.39
2018-12-29T10:17:32.158Z,7.53
2018-12-29T10:18:29.905Z,7.4
2018-12-29T10:19:29.918Z,7.45
2018-12-29T10:20:29.954Z,7.51
2018-12-29T10:21:30.221Z,7.45
2018-12-29T10:22:29.714Z,7.54
2018-12-29T10:23:29.984Z,7.54
2018-12-29T10:24:30.318Z,7.56
2018-12-29T10:25:30.015Z,7.6
2018-12-29T10:26:30.052Z,7.54
2018-12-29T10:27:30.065Z,7.57
2018-12-29T10:28:30.074Z,7.5
2018-12-29T10:29:30.094Z,7.54
2018-12-29T10:30:29.859Z,7.56
2018-12-29T10:31:29.863Z,7.6
2018-12-29T10:32:30.146Z,7.6
2018-12-29T10:33:30.168Z,7.66
2018-12-29T10:34:30.183Z,7.54
2018-12-29T10:35:30.185Z,7.63
2018-12-29T10:36:30.220Z,7.58
2018-12-29T10:37:30.494Z,7.66
2018-12-29T10:38:29.983Z,7.6
2018-12-29T10:39:30.003Z,7.63
2018-12-29T10:40:30.292Z,7.58
2018-12-29T10:41:30.371Z,7.6
2018-12-29T10:42:30.056Z,7.67
2018-12-29T10:43:30.066Z,7.7
2018-12-29T10:44:30.091Z,7.73
2018-12-29T10:45:30.096Z,7.63
2018-12-29T10:46:30.130Z,7.7
2018-12-29T10:47:36.858Z,7.69
2018-12-29T10:48:30.155Z,7.63
2018-12-29T10:49:30.416Z,7.7
2018-12-29T10:50:30.439Z,7.7
2018-12-29T10:51:30.209Z,7.67
2018-12-29T10:52:30.529Z,7.72
2018-12-29T10:53:30.506Z,7.75
2018-12-29T10:54:30.515Z,7.75
2018-12-29T10:55:30.532Z,7.82
2018-12-29T10:56:30.285Z,7.8
2018-12-29T10:57:30.835Z,7.8
2018-12-29T10:58:30.584Z,7.79
2018-12-29T10:59:30.588Z,7.85
2018-12-29T11:00:37.530Z,7.83
2018-12-29T11:01:30.359Z,7.85
2018-12-29T11:02:30.648Z,7.93
2018-12-29T11:03:30.411Z,7.83
2018-12-29T11:04:30.685Z,7.79
2018-12-29T11:05:30.436Z,7.87
2018-12-29T11:06:30.992Z,7.82
2018-12-29T11:07:30.783Z,7.85
2018-12-29T11:08:31.016Z,7.82
2018-12-29T11:09:30.777Z,7.8
2018-12-29T11:10:30.529Z,7.91
2018-12-29T11:11:30.804Z,7.97
2018-12-29T11:12:31.128Z,7.85
2018-12-29T11:13:30.839Z,7.9
2018-12-29T11:14:30.871Z,7.88
2018-12-29T11:15:31.155Z,7.94
2018-12-29T11:16:30.634Z,8
2018-12-29T11:17:30.903Z,7.97
2018-12-29T11:18:30.919Z,7.97
2018-12-29T11:19:31.204Z,7.94
2018-12-29T11:20:30.960Z,7.98
2018-12-29T11:21:30.962Z,7.97
2018-12-29T11:22:31.257Z,7.91
2018-12-29T11:23:31.010Z,8.03
2018-12-29T11:24:31.035Z,8.01
2018-12-29T11:25:30.796Z,8.12
2018-12-29T11:26:31.320Z,8.12
2018-12-29T11:27:31.076Z,7.97
2018-12-29T11:28:30.846Z,8.09
2018-12-29T11:29:31.097Z,7.97
2018-12-29T11:30:31.129Z,8.08
2018-12-29T11:31:31.409Z,7.97
2018-12-29T11:32:31.145Z,8
2018-12-29T11:33:30.919Z,8.16
2018-12-29T11:34:31.181Z,8.09
2018-12-29T11:35:33.381Z,8.16
2018-12-29T11:36:31.227Z,8.09
2018-12-29T11:37:31.239Z,8.1
2018-12-29T11:38:31.262Z,8.08
2018-12-29T11:39:31.275Z,8.1
2018-12-29T11:40:31.024Z,8.16
2018-12-29T11:41:31.058Z,8.13
2018-12-29T11:42:31.343Z,8.16
2018-12-29T11:43:31.366Z,8.19
2018-12-29T11:44:31.379Z,8.2
2018-12-29T11:45:31.628Z,8.24
2018-12-29T11:46:31.390Z,8.27
2018-12-29T11:47:31.420Z,8.23
2018-12-29T11:48:31.204Z,8.27
2018-12-29T11:49:31.461Z,8.31
2018-12-29T11:50:31.208Z,8.27
2018-12-29T11:51:31.275Z,8.3
2018-12-29T11:52:31.271Z,8.28
2018-12-29T11:53:31.784Z,8.27
2018-12-29T11:54:31.651Z,8.28
2018-12-29T11:55:32.135Z,8.37
2018-12-29T11:56:31.328Z,8.36
2018-12-29T11:57:31.862Z,8.33
2018-12-29T11:58:31.615Z,8.41
2018-12-29T11:59:31.925Z,8.37
2018-12-29T12:00:31.661Z,8.38
2018-12-29T12:01:31.418Z,8.37
2018-12-29T12:02:31.943Z,8.42
2018-12-29T12:03:31.979Z,8.41
2018-12-29T12:04:32.130Z,8.44
2018-12-29T12:05:31.482Z,8.42
2018-12-29T12:06:31.493Z,8.42
2018-12-29T12:07:31.773Z,8.44
2018-12-29T12:08:31.778Z,8.46
2018-12-29T12:09:32.900Z,8.46
2018-12-29T12:10:31.810Z,8.49
2018-12-29T12:11:31.862Z,8.45
2018-12-29T12:12:31.871Z,8.38
2018-12-29T12:13:31.900Z,8.49
2018-12-29T12:14:31.891Z,8.53
2018-12-29T12:15:31.673Z,8.46
2018-12-29T12:16:32.219Z,8.53
2018-12-29T12:17:31.701Z,8.44
2018-12-29T12:18:31.976Z,8.46
2018-12-29T12:19:31.995Z,8.44
2018-12-29T12:20:32.006Z,8.48
2018-12-29T12:21:32.006Z,8.48
2018-12-29T12:22:32.050Z,8.45
2018-12-29T12:23:31.776Z,8.45
2018-12-29T12:24:32.081Z,8.44
2018-12-29T12:25:32.577Z,8.49
2018-12-29T12:26:32.104Z,8.56
2018-12-29T12:27:32.886Z,8.55
2018-12-29T12:28:31.894Z,8.63
2018-12-29T12:29:31.916Z,8.58
2018-12-29T12:30:32.170Z,8.58
2018-12-29T12:31:32.203Z,8.55
2018-12-29T12:32:32.669Z,8.52
2018-12-29T12:33:31.987Z,8.53
2018-12-29T12:34:32.518Z,8.58
2018-12-29T12:35:32.010Z,8.63
2018-12-29T12:36:32.032Z,8.6
2018-12-29T12:37:33.082Z,8.55
2018-12-29T12:38:32.311Z,8.6
2018-12-29T12:39:32.351Z,8.53
2018-12-29T12:40:32.346Z,8.6
2018-12-29T12:41:33.266Z,8.64
2018-12-29T12:42:32.173Z,8.69
2018-12-29T12:43:32.854Z,8.55
2018-12-29T12:44:32.161Z,8.56
2018-12-29T12:45:32.193Z,8.6
2018-12-29T12:46:33.186Z,8.56
2018-12-29T12:47:32.498Z,8.58
2018-12-29T12:48:33.446Z,8.53
2018-12-29T12:49:32.520Z,8.55
2018-12-29T12:50:32.796Z,8.55
2018-12-29T12:51:32.277Z,8.6
2018-12-29T12:52:32.563Z,8.6
2018-12-29T12:53:32.843Z,8.53
2018-12-29T12:54:32.593Z,8.63
2018-12-29T12:55:32.918Z,8.6
2018-12-29T12:56:32.608Z,8.56
2018-12-29T12:57:33.224Z,8.61
2018-12-29T12:58:33.122Z,8.61
2018-12-29T12:59:32.417Z,8.64
2018-12-29T13:00:33.176Z,8.63
2018-12-29T13:01:32.709Z,8.55
2018-12-29T13:02:32.720Z,8.6
2018-12-29T13:03:33.062Z,8.6
2018-12-29T13:04:33.279Z,8.49
2018-12-29T13:05:32.784Z,8.55
2018-12-29T13:06:32.521Z,8.6
2018-12-29T13:07:32.558Z,8.58
2018-12-29T13:08:32.884Z,8.55
2018-12-29T13:09:32.599Z,8.69
2018-12-29T13:10:32.888Z,8.56
2018-12-29T13:11:32.656Z,8.51
2018-12-29T13:12:32.889Z,8.53
2018-12-29T13:13:33.705Z,8.52
2018-12-29T13:14:32.691Z,8.6
2018-12-29T13:15:32.945Z,8.51
2018-12-29T13:16:33.004Z,8.63
2018-12-29T13:17:32.987Z,8.61
2018-12-29T13:18:32.750Z,8.58
2018-12-29T13:19:33.380Z,8.55
2018-12-29T13:20:32.769Z,8.56
2018-12-29T13:21:32.811Z,8.49